TimeCST,TemperatureF,Dew PointF,Humidity,Sea Level PressureIn,VisibilityMPH,Wind Direction,Wind SpeedMPH,Gust SpeedMPH,PrecipitationIn,Events,Conditions,WindDirDegrees,DateUTC
12:22 AM,51.8,48.2,88,29.84,10.0,South,9.2,-,N/A,,Scattered Clouds,190,2013-01-11 06:22:00
12:32 AM,50.0,46.4,87,29.84,10.0,South,10.4,-,N/A,,Mostly Cloudy,190,2013-01-11 06:32:00
12:53 AM,50.0,46.9,89,29.84,10.0,South,10.4,-,N/A,,Mostly Cloudy,170,2013-01-11 06:53:00
1:39 AM,48.2,46.4,93,29.83,10.0,SSE,8.1,-,N/A,,Partly Cloudy,160,2013-01-11 07:39:00
1:53 AM,48.0,46.0,93,29.83,10.0,SSE,9.2,-,N/A,,Scattered Clouds,160,2013-01-11 07:53:00
2:53 AM,46.9,45.0,93,29.83,10.0,SSE,10.4,-,N/A,,Partly Cloudy,160,2013-01-11 08:53:00
3:53 AM,46.0,44.1,93,29.80,10.0,SSE,10.4,-,N/A,,Clear,160,2013-01-11 09:53:00
4:53 AM,46.9,44.1,90,29.77,10.0,SSE,12.7,-,N/A,,Clear,160,2013-01-11 10:53:00
5:53 AM,46.9,44.1,90,29.77,10.0,South,13.8,-,N/A,,Clear,180,2013-01-11 11:53:00
6:53 AM,46.9,44.1,90,29.78,10.0,South,13.8,-,N/A,,Clear,170,2013-01-11 12:53:00
7:53 AM,48.0,43.0,83,29.78,10.0,South,12.7,-,N/A,,Partly Cloudy,170,2013-01-11 13:53:00
8:53 AM,48.9,44.1,83,29.79,10.0,SSE,13.8,-,N/A,,Clear,160,2013-01-11 14:53:00
9:53 AM,53.1,45.0,74,29.79,10.0,South,13.8,-,N/A,,Clear,170,2013-01-11 15:53:00
10:53 AM,59.0,45.0,60,29.76,10.0,South,15.0,24.2,N/A,,Scattered Clouds,180,2013-01-11 16:53:00
11:53 AM,60.1,44.1,55,29.74,10.0,South,17.3,24.2,N/A,,Partly Cloudy,190,2013-01-11 17:53:00
12:53 PM,63.0,45.0,52,29.70,10.0,South,18.4,24.2,N/A,,Clear,180,2013-01-11 18:53:00
1:53 PM,66.2,44.6,46,29.67,10.0,South,20.7,29.9,N/A,,Partly Cloudy,170,2013-01-11 19:53:00
2:53 PM,66.0,45.0,47,29.66,10.0,South,19.6,-,N/A,,Partly Cloudy,180,2013-01-11 20:53:00
3:53 PM,70.0,45.0,41,29.65,10.0,South,21.9,28.8,N/A,,Clear,180,2013-01-11 21:53:00
4:53 PM,66.9,44.1,44,29.67,10.0,South,23.0,-,N/A,,Clear,180,2013-01-11 22:53:00
5:53 PM,64.9,44.1,47,29.68,10.0,South,23.0,-,N/A,,Clear,180,2013-01-11 23:53:00
6:53 PM,64.6,43.3,46,29.69,10.0,South,15.0,-,N/A,,Clear,170,2013-01-12 00:53:00
7:53 PM,63.0,45.0,52,29.71,10.0,South,16.1,-,N/A,,Clear,170,2013-01-12 01:53:00
8:53 PM,63.0,48.0,58,29.73,10.0,South,17.3,25.3,N/A,,Clear,170,2013-01-12 02:53:00
9:53 PM,62.1,48.0,60,29.74,10.0,South,15.0,-,N/A,,Clear,170,2013-01-12 03:53:00
10:53 PM,62.1,48.9,62,29.75,10.0,South,19.6,-,N/A,,Clear,170,2013-01-12 04:53:00
11:53 PM,61.0,46.9,60,29.79,10.0,WNW,12.7,-,N/A,,Scattered Clouds,290,2013-01-12 05:53:00